Cambridge, MA (02138)

12:21 PM EDT on September 05, 2015 (GMT -0400)
Huron Village | | Change Station
CLOSE
Current Station
Personal Weather Station
Location: Cambridge, MA
Elevation: 62 ft
Nearby Weather Stations

Elev 62 ft 42.38 °N, 71.13 °W | Updated 15 seconds ago

Partly Cloudy
Partly Cloudy
79.5 °F
Feels Like 80 °F
N
1.0
Wind Variable Wind from West
Gusts 2.0 mph

Today
High -- | Low -- °F
--% Chance of Precip.
Yesterday
High -- | Low -- °F
Precip. -- in
6:13 AM 7:12 PM
Waning Gibbous, 47% visible
Pressure 30.29 in
Visibility 10.0 miles
Clouds Few 30000 ft
Heat Index 80 °F
Dew Point 54 °F
Humidity 41%
Rainfall 0.00 in
Snow Depth Not available.
UV 8 out of 12
Pollen 8.50 out of 12
Air Quality Not available.
Flu Activity Not available.
METAR KBOS 051554Z 14007KT 10SM FEW300 21/09 A3029 RMK AO2 SLP255 T02110094
Pressure 30.29 in
Visibility 10.0 miles
Clouds Few 30000 ft
Heat Index 80 °F
Dew Point 54 °F
Humidity 41%
Rainfall 0.00 in
Snow Depth Not available.
UV 8 out of 12
Pollen 8.50 out of 12
Air Quality Not available.
Flu Activity Not available.
METAR KBOS 051554Z 14007KT 10SM FEW300 21/09 A3029 RMK AO2 SLP255 T02110094

10-Day Weather Forecast

×

Almanac

Astronomy

Sep. 05, 2015 Rise Set
Actual Time
Civil Twilight
Nautical Twilight
Astronomical Twilight
Moon
Length of Visible Light
Length of Day
Tomorrow will be .
, % of the Moon is Illuminated

Today's Extremes

State Highs State Lows

Community

WunderPhotos

Upload Photos

1,852,495 photos uploaded!

WunderBlogs® & News

Nearby

Air Quality

  Air Quality AQ Index Pollutant
Not available.

Snow Depth

Station Depth Elevation

Earthquake Activity

City Distance Mag. Time & Date
Minimum magnitude displayed is 2.5.

Coastal Water Temperatures

Place Temperature

Stations

Nearby Weather Stations

Station Location Temp. Windchill Dew Point Humidity Wind Precip. Elev Updated Type